MMTC/TRC METAR and TAF weather

Enter ICAO airport designator
Station Type Date Time Source
MMTC METAR 2020/05/29 18:42 UTC NOAA

MMTC 291842Z 36013KT 10SM BKN025 32/09 A3015 RMK 8/100 ISOL TCU


Station Type Date Time Source
MMTC Decoded METAR 2020/05/29 18:42 UTC NOAA

Torreon, Coah., Mexico (MMTC) 25-32N 103-27W 1150M
May 29, 2020 - 02:42 PM EDT / 2020.05.29 1842 UTC
Wind: from the N (360 degrees) at 15 MPH (13 KT):0
Visibility: 10 mile(s):0
Sky conditions: mostly cloudy
Weather: Towering cumulus clouds observed
Temperature: 89 F (32 C)
Dew Point: 48 F (9 C)
Relative Humidity: 24%
Pressure (altimeter): 30.15 in. Hg (1020 hPa)
ob: MMTC 291842Z 36013KT 10SM BKN025 32/09 A3015 RMK 8/100 ISOL TCU
cycle: 18

Station Type Date Time Source
MMTC TAF 2020/05/29 18:39 UTC NOAA

TAF TAF MMTC 291738Z 2918/3018 07008KT P6SM SCT030 SCT220
BECMG 2920/2921 34015KT SCT030CB BKN220
TEMPO 2921/3001 VC RA
FM300200 03006KT P6SM SCT030 BKN090
BECMG 3005/3006 00000KT SCT090
FM301500 05012KT P6SM SCT030 BKN090

Example: see airport list